createdAt,value
2022-10-03T00:01:43.467Z,11.01
2022-10-03T00:04:21.199Z,11.00
2022-10-03T00:07:06.617Z,11.02
2022-10-03T00:10:11.579Z,11.00
2022-10-03T00:12:38.668Z,10.99
2022-10-03T00:15:16.061Z,11.00
2022-10-03T00:18:12.568Z,10.95
2022-10-03T00:20:52.643Z,10.97
2022-10-03T00:23:26.729Z,11.07
2022-10-03T00:26:30.096Z,11.13
2022-10-03T00:29:16.087Z,11.21
2022-10-03T00:31:43.675Z,11.15
2022-10-03T00:34:22.889Z,11.09
2022-10-03T00:37:05.628Z,11.01
2022-10-03T00:40:13.705Z,11.03
2022-10-03T00:43:00.827Z,11.12
2022-10-03T00:45:58.588Z,11.16
2022-10-03T00:48:47.836Z,11.16
2022-10-03T00:51:42.387Z,11.11
2022-10-03T00:54:09.673Z,11.09
2022-10-03T00:56:39.484Z,11.07
2022-10-03T00:59:12.547Z,11.02
2022-10-03T01:01:48.452Z,11.03
2022-10-03T01:04:49.348Z,10.98
2022-10-03T01:07:38.105Z,11.03
2022-10-03T01:10:38.710Z,10.99
2022-10-03T01:13:05.956Z,10.88
2022-10-03T01:15:51.626Z,10.77
2022-10-03T01:18:43.890Z,10.74
2022-10-03T01:21:39.550Z,10.60
2022-10-03T01:24:26.317Z,10.55
2022-10-03T01:26:57.045Z,10.50
2022-10-03T01:30:00.498Z,10.54
2022-10-03T01:33:05.973Z,10.43
2022-10-03T01:35:48.938Z,10.43
2022-10-03T01:38:56.047Z,10.57
2022-10-03T01:41:34.659Z,10.73
2022-10-03T01:44:20.103Z,10.72
2022-10-03T01:47:24.605Z,10.67
2022-10-03T01:49:56.647Z,10.65
2022-10-03T01:52:36.031Z,10.82
2022-10-03T01:55:19.126Z,10.83
2022-10-03T01:58:04.327Z,10.87
2022-10-03T02:00:44.931Z,10.92
2022-10-03T02:03:28.795Z,10.95
2022-10-03T02:05:58.656Z,10.95
2022-10-03T02:08:38.198Z,10.99
2022-10-03T02:11:10.226Z,10.90
2022-10-03T02:13:59.327Z,10.84
2022-10-03T02:16:46.042Z,10.78
2022-10-03T02:19:26.331Z,10.72
2022-10-03T02:21:55.251Z,10.75
2022-10-03T02:24:49.397Z,10.79
2022-10-03T02:27:44.488Z,10.81
2022-10-03T02:30:19.978Z,10.83
2022-10-03T02:33:19.879Z,10.83
2022-10-03T02:36:16.466Z,10.87
2022-10-03T02:39:14.429Z,10.86
2022-10-03T02:42:05.435Z,10.90
2022-10-03T02:44:54.800Z,10.93
2022-10-03T02:48:19.714Z,10.94
2022-10-03T02:50:55.220Z,10.87
2022-10-03T02:53:22.392Z,10.90
2022-10-03T02:56:27.095Z,10.93
2022-10-03T02:59:18.204Z,11.01
2022-10-03T03:02:00.064Z,10.95
2022-10-03T03:04:42.263Z,10.90
2022-10-03T03:07:46.977Z,10.89
2022-10-03T03:10:20.281Z,10.97
2022-10-03T03:13:01.067Z,11.04
2022-10-03T03:15:53.109Z,11.01
2022-10-03T03:18:20.123Z,10.97
2022-10-03T03:20:56.997Z,11.08
2022-10-03T03:23:47.387Z,11.18
2022-10-03T03:26:36.755Z,11.29
2022-10-03T03:29:12.974Z,11.36
2022-10-03T03:31:52.926Z,11.41
2022-10-03T03:34:28.920Z,11.35
2022-10-03T03:37:00.978Z,11.46
2022-10-03T03:40:02.339Z,11.43
2022-10-03T03:42:48.094Z,11.52
2022-10-03T03:45:54.491Z,11.48
2022-10-03T03:48:42.448Z,11.44
2022-10-03T03:51:47.191Z,11.40
2022-10-03T03:54:39.017Z,11.42
2022-10-03T03:57:12.223Z,11.40
2022-10-03T03:59:45.134Z,11.34
2022-10-03T04:02:27.087Z,11.33
2022-10-03T04:05:26.777Z,11.24
2022-10-03T04:08:15.623Z,11.26
2022-10-03T04:10:51.413Z,11.29
2022-10-03T04:13:41.088Z,11.30
2022-10-03T04:16:40.022Z,11.29
2022-10-03T04:19:17.528Z,11.32
2022-10-03T04:21:51.753Z,11.36
2022-10-03T04:24:36.869Z,11.35
2022-10-03T04:27:32.637Z,11.26
2022-10-03T04:30:20.854Z,11.21
2022-10-03T04:33:14.419Z,11.25
2022-10-03T04:36:06.550Z,11.17
2022-10-03T04:39:01.321Z,11.17
2022-10-03T04:41:43.878Z,11.11
2022-10-03T04:44:27.667Z,11.14
2022-10-03T04:46:56.871Z,11.14
2022-10-03T04:49:33.066Z,11.22
2022-10-03T04:52:12.012Z,11.22
2022-10-03T04:55:07.094Z,11.26
2022-10-03T04:58:02.708Z,11.24
2022-10-03T05:00:33.572Z,11.31
2022-10-03T05:03:25.032Z,11.36
2022-10-03T05:06:01.197Z,11.35
2022-10-03T05:08:45.770Z,11.37
2022-10-03T05:11:12.987Z,11.35
2022-10-03T05:13:45.490Z,11.38
2022-10-03T05:16:21.997Z,11.42
2022-10-03T05:19:02.584Z,11.40
2022-10-03T05:21:47.374Z,11.49
2022-10-03T05:24:15.620Z,11.56
2022-10-03T05:27:15.274Z,11.68
2022-10-03T05:29:52.339Z,11.80
2022-10-03T05:32:31.777Z,11.86
2022-10-03T05:35:27.153Z,11.91
2022-10-03T05:37:56.998Z,12.13
2022-10-03T05:40:25.798Z,12.28
2022-10-03T05:43:00.939Z,12.46
2022-10-03T05:45:31.827Z,12.48
2022-10-03T05:48:08.005Z,12.46
2022-10-03T05:51:01.149Z,12.51
2022-10-03T05:53:49.800Z,12.56
2022-10-03T05:56:41.060Z,12.64
2022-10-03T05:59:42.649Z,12.59
2022-10-03T06:02:35.001Z,12.54
2022-10-03T06:05:11.440Z,12.46
2022-10-03T06:08:10.681Z,12.46
2022-10-03T06:10:45.460Z,12.66
2022-10-03T06:13:20.487Z,12.94
2022-10-03T06:15:58.122Z,12.99
2022-10-03T06:18:44.486Z,13.07
2022-10-03T06:21:19.763Z,13.17
2022-10-03T06:24:24.074Z,13.96
2022-10-03T06:27:16.031Z,15.72
2022-10-03T06:30:05.734Z,17.06
2022-10-03T06:32:52.111Z,18.24
2022-10-03T06:35:54.885Z,20.39
2022-10-03T06:38:25.302Z,18.45
2022-10-03T06:41:30.845Z,16.64
2022-10-03T06:44:21.556Z,15.37
2022-10-03T06:47:09.370Z,14.89
2022-10-03T06:50:07.327Z,14.55
2022-10-03T06:52:34.652Z,14.96
2022-10-03T06:55:32.155Z,14.91
2022-10-03T06:58:31.361Z,14.63
2022-10-03T07:01:14.987Z,14.42
2022-10-03T07:04:08.800Z,14.44
2022-10-03T07:07:11.450Z,14.43
2022-10-03T07:10:01.188Z,14.41
2022-10-03T07:12:31.296Z,14.41
2022-10-03T07:15:20.230Z,14.66
2022-10-03T07:18:09.167Z,16.00
2022-10-03T07:20:58.750Z,15.49
2022-10-03T07:23:29.269Z,15.14
2022-10-03T07:25:59.498Z,14.88
2022-10-03T07:28:32.770Z,14.74
2022-10-03T07:31:02.942Z,14.84
2022-10-03T07:33:58.942Z,15.95
2022-10-03T07:37:07.855Z,17.18
2022-10-03T07:40:05.919Z,17.61
2022-10-03T07:42:47.617Z,16.70
2022-10-03T07:45:30.387Z,16.50
2022-10-03T07:48:06.430Z,18.46
2022-10-03T07:50:50.554Z,19.81
2022-10-03T07:53:29.338Z,20.66
2022-10-03T07:55:56.785Z,20.88
2022-10-03T07:58:38.215Z,21.08
2022-10-03T08:01:43.086Z,20.09
2022-10-03T08:04:13.313Z,20.59
2022-10-03T08:06:48.954Z,18.86
2022-10-03T08:09:35.386Z,18.80
2022-10-03T08:12:26.801Z,18.67
2022-10-03T08:15:11.634Z,19.25
2022-10-03T08:18:02.012Z,19.04
2022-10-03T08:20:47.969Z,18.42
2022-10-03T08:23:30.302Z,17.84
2022-10-03T08:26:34.842Z,18.09
2022-10-03T08:29:29.941Z,17.95
2022-10-03T08:32:34.271Z,18.39
2022-10-03T08:35:06.830Z,17.91
2022-10-03T08:37:59.100Z,17.65
2022-10-03T08:40:40.692Z,17.01
2022-10-03T08:43:34.119Z,16.67
2022-10-03T08:46:07.185Z,16.99
2022-10-03T08:49:01.556Z,17.19
2022-10-03T08:51:47.958Z,17.11
2022-10-03T08:54:33.707Z,17.25
2022-10-03T08:57:35.131Z,17.52
2022-10-03T09:00:14.258Z,17.35
2022-10-03T09:06:09.291Z,17.24
2022-10-03T09:09:14.690Z,17.13
2022-10-03T09:11:51.083Z,17.34
2022-10-03T09:14:32.522Z,17.28
2022-10-03T09:17:21.268Z,16.77
2022-10-03T09:20:33.132Z,16.25
2022-10-03T09:23:27.864Z,15.97
2022-10-03T09:26:29.379Z,16.15
2022-10-03T09:29:08.621Z,16.20
2022-10-03T09:31:54.418Z,15.93
2022-10-03T09:34:37.823Z,15.71
2022-10-03T09:37:16.813Z,15.83
2022-10-03T09:39:52.427Z,16.01
2022-10-03T09:42:38.320Z,15.65
2022-10-03T09:45:45.849Z,15.72
2022-10-03T09:48:24.742Z,15.87
2022-10-03T09:51:34.499Z,16.23
2022-10-03T09:54:07.226Z,16.71
2022-10-03T09:57:22.789Z,16.67
2022-10-03T10:00:01.673Z,16.52
2022-10-03T10:02:41.832Z,16.27
2022-10-03T10:05:23.793Z,16.33
2022-10-03T10:08:21.679Z,16.33
2022-10-03T10:11:14.119Z,16.46
2022-10-03T10:14:39.968Z,16.57
2022-10-03T10:17:39.280Z,16.71
2022-10-03T10:20:31.306Z,16.74
2022-10-03T10:23:16.893Z,17.01
2022-10-03T10:26:02.849Z,17.08
2022-10-03T10:28:45.108Z,16.94
2022-10-03T10:31:53.150Z,17.17
2022-10-03T10:34:35.531Z,16.73
2022-10-03T10:37:19.230Z,16.94
2022-10-03T10:40:16.581Z,16.71
2022-10-03T10:43:02.026Z,16.34
2022-10-03T10:45:48.679Z,16.11
2022-10-03T10:48:40.104Z,16.23
2022-10-03T10:51:25.565Z,15.91
2022-10-03T10:54:30.351Z,15.51
2022-10-03T10:57:09.853Z,15.83
2022-10-03T10:59:55.948Z,16.19
2022-10-03T11:03:01.581Z,16.69
2022-10-03T11:06:06.592Z,16.65
2022-10-03T11:09:06.808Z,16.67
2022-10-03T11:12:08.891Z,16.62
2022-10-03T11:15:23.759Z,16.76
2022-10-03T11:17:53.988Z,16.81
2022-10-03T11:20:57.718Z,16.99
2022-10-03T11:24:02.457Z,17.05
2022-10-03T11:26:35.545Z,17.17
2022-10-03T11:29:33.339Z,17.48
2022-10-03T11:32:09.873Z,17.68
2022-10-03T11:35:24.499Z,17.49
2022-10-03T11:37:55.895Z,17.36
2022-10-03T11:40:53.476Z,17.37
2022-10-03T11:43:26.619Z,17.18
2022-10-03T11:46:11.782Z,16.98
2022-10-03T11:49:09.907Z,16.75
2022-10-03T11:51:40.818Z,16.63
2022-10-03T11:54:31.487Z,16.78
2022-10-03T11:57:00.174Z,16.70
2022-10-03T11:59:50.313Z,16.49
2022-10-03T12:02:41.990Z,16.34
2022-10-03T12:05:22.395Z,16.31
2022-10-03T12:08:13.970Z,16.33
2022-10-03T12:10:59.541Z,16.34
2022-10-03T12:13:40.565Z,16.20
2022-10-03T12:16:22.318Z,16.18
2022-10-03T12:18:55.360Z,16.07
2022-10-03T12:21:53.757Z,16.33
2022-10-03T12:24:25.754Z,16.50
2022-10-03T12:27:43.900Z,16.43
2022-10-03T12:30:21.635Z,16.53
2022-10-03T12:33:00.460Z,16.50
2022-10-03T12:36:05.162Z,16.59
2022-10-03T12:38:50.244Z,16.51
2022-10-03T12:41:43.087Z,16.43
2022-10-03T12:44:38.419Z,16.52
2022-10-03T12:47:32.285Z,16.53
2022-10-03T12:50:13.088Z,16.33
2022-10-03T12:52:50.206Z,16.33
2022-10-03T12:55:31.647Z,16.46
2022-10-03T12:57:58.859Z,16.51
2022-10-03T13:00:50.615Z,16.44
2022-10-03T13:03:38.720Z,16.33
2022-10-03T13:06:38.818Z,16.23
2022-10-03T13:09:37.360Z,16.34
2022-10-03T13:12:11.784Z,16.27
2022-10-03T13:15:04.018Z,16.22
2022-10-03T13:17:52.979Z,16.26
2022-10-03T13:20:33.161Z,16.20
2022-10-03T13:23:10.281Z,16.24
2022-10-03T13:25:46.606Z,16.29
2022-10-03T13:28:31.685Z,16.14
2022-10-03T13:31:11.443Z,16.26
2022-10-03T13:33:54.832Z,16.28
2022-10-03T13:36:31.472Z,16.40
2022-10-03T13:39:18.405Z,16.50
2022-10-03T13:42:10.504Z,16.59
2022-10-03T13:44:48.857Z,16.65
2022-10-03T13:47:34.829Z,16.53
2022-10-03T13:50:17.917Z,16.24
2022-10-03T13:53:02.419Z,16.11
2022-10-03T13:55:42.332Z,15.72
2022-10-03T13:58:35.920Z,15.48
2022-10-03T14:01:21.803Z,15.47
2022-10-03T14:03:55.305Z,15.51
2022-10-03T14:06:37.584Z,15.43
2022-10-03T14:09:05.364Z,15.38
2022-10-03T14:11:43.814Z,15.40
2022-10-03T14:14:55.631Z,15.42
2022-10-03T14:17:53.278Z,15.45
2022-10-03T14:20:27.512Z,15.48
2022-10-03T14:23:21.322Z,15.52
2022-10-03T14:26:06.149Z,15.59
2022-10-03T14:28:49.996Z,15.71
2022-10-03T14:31:35.030Z,15.69
2022-10-03T14:34:52.452Z,15.64
2022-10-03T14:37:22.502Z,15.62
2022-10-03T14:40:05.733Z,15.53
2022-10-03T14:42:48.325Z,15.24
2022-10-03T14:45:19.246Z,15.09
2022-10-03T14:47:54.323Z,15.18
2022-10-03T14:50:26.030Z,15.19
2022-10-03T14:53:02.358Z,15.18
2022-10-03T14:55:39.874Z,15.04
2022-10-03T14:58:20.265Z,14.87
2022-10-03T15:00:52.873Z,14.82
2022-10-03T15:03:24.075Z,14.70
2022-10-03T15:05:53.396Z,14.72
2022-10-03T15:08:26.707Z,14.67
2022-10-03T15:10:55.943Z,14.64
2022-10-03T15:13:25.350Z,14.59
2022-10-03T15:15:55.459Z,14.57
2022-10-03T15:18:24.798Z,14.58
2022-10-03T15:20:57.508Z,14.49
2022-10-03T15:23:43.870Z,14.45
2022-10-03T15:26:18.907Z,14.44
2022-10-03T15:28:53.675Z,14.40
2022-10-03T15:31:32.992Z,14.44
2022-10-03T15:34:04.511Z,14.50
2022-10-03T15:36:43.742Z,14.49
2022-10-03T15:39:24.595Z,14.44
2022-10-03T15:42:04.656Z,14.39
2022-10-03T15:44:39.362Z,14.30
2022-10-03T15:47:14.190Z,14.28
2022-10-03T15:49:50.606Z,14.26
2022-10-03T15:52:29.551Z,14.16
2022-10-03T15:55:11.439Z,14.08
2022-10-03T15:57:47.460Z,14.04
2022-10-03T16:00:31.119Z,13.93
2022-10-03T16:03:11.293Z,13.85
2022-10-03T16:05:56.230Z,13.76
2022-10-03T16:08:28.827Z,13.65
2022-10-03T16:11:21.393Z,13.53
2022-10-03T16:14:17.335Z,13.41
2022-10-03T16:17:14.752Z,13.36
2022-10-03T16:20:26.856Z,13.32
2022-10-03T16:22:57.906Z,13.29
2022-10-03T16:25:29.661Z,13.28
2022-10-03T16:28:13.040Z,13.18
2022-10-03T16:31:01.647Z,13.18
2022-10-03T16:33:35.504Z,13.14
2022-10-03T16:36:08.378Z,13.10
2022-10-03T16:38:43.416Z,13.06
2022-10-03T16:41:10.772Z,13.01
2022-10-03T16:43:38.359Z,12.96
2022-10-03T16:46:15.049Z,12.88
2022-10-03T16:49:02.325Z,12.86
2022-10-03T16:51:46.374Z,12.79
2022-10-03T16:54:17.346Z,12.80
2022-10-03T16:56:48.908Z,12.74
2022-10-03T16:59:23.037Z,12.68
2022-10-03T17:01:54.365Z,12.62
2022-10-03T17:04:37.829Z,12.53
2022-10-03T17:07:19.107Z,12.45
2022-10-03T17:09:49.797Z,12.37
2022-10-03T17:12:22.475Z,12.39
2022-10-03T17:14:53.460Z,12.38
2022-10-03T17:17:45.485Z,12.42
2022-10-03T17:20:16.688Z,12.43
2022-10-03T17:22:52.788Z,12.39
2022-10-03T17:25:51.259Z,12.39
2022-10-03T17:28:41.683Z,12.39
2022-10-03T17:31:22.728Z,12.40
2022-10-03T17:33:55.397Z,12.42
2022-10-03T17:36:45.992Z,12.39
2022-10-03T17:39:56.329Z,12.36
2022-10-03T17:42:39.606Z,12.35
2022-10-03T17:45:31.783Z,12.23
2022-10-03T17:48:10.549Z,12.16
2022-10-03T17:51:11.941Z,12.10
2022-10-03T17:53:43.152Z,12.05
2022-10-03T17:56:13.310Z,11.96
2022-10-03T17:58:51.007Z,12.09
2022-10-03T18:01:28.179Z,12.12
2022-10-03T18:04:02.461Z,12.12
2022-10-03T18:06:32.474Z,12.04
2022-10-03T18:09:19.180Z,11.99
2022-10-03T18:11:50.047Z,11.89
2022-10-03T18:14:29.560Z,11.74
2022-10-03T18:17:24.656Z,11.84
2022-10-03T18:20:31.976Z,11.84
2022-10-03T18:23:05.322Z,11.87
2022-10-03T18:28:59.040Z,11.91
2022-10-03T18:31:31.100Z,11.92
2022-10-03T18:34:00.333Z,11.87
2022-10-03T18:36:34.406Z,12.00
2022-10-03T18:39:23.069Z,12.02
2022-10-03T18:41:59.238Z,12.08
2022-10-03T18:44:29.960Z,12.08
2022-10-03T18:47:41.126Z,12.10
2022-10-03T18:50:31.208Z,12.15
2022-10-03T18:53:04.809Z,12.25
2022-10-03T18:55:47.327Z,12.26
2022-10-03T18:58:47.326Z,12.33
2022-10-03T19:01:20.165Z,12.34
2022-10-03T19:04:21.087Z,12.37
2022-10-03T19:06:52.869Z,12.31
2022-10-03T19:09:35.581Z,12.30
2022-10-03T19:12:05.777Z,12.32
2022-10-03T19:14:42.661Z,12.38
2022-10-03T19:17:42.058Z,12.36
2022-10-03T19:20:27.119Z,12.31
2022-10-03T19:23:16.019Z,12.36
2022-10-03T19:25:48.488Z,12.41
2022-10-03T19:28:25.983Z,12.44
2022-10-03T19:31:02.365Z,12.44
2022-10-03T19:33:32.433Z,12.39
2022-10-03T19:36:04.235Z,12.43
2022-10-03T19:38:39.586Z,12.42
2022-10-03T19:41:27.497Z,12.37
2022-10-03T19:43:57.110Z,12.37
2022-10-03T19:46:45.972Z,12.36
2022-10-03T19:50:06.916Z,12.31
2022-10-03T19:52:41.835Z,12.18
2022-10-03T19:55:24.871Z,12.15
2022-10-03T19:57:57.632Z,12.08
2022-10-03T20:00:38.097Z,12.12
2022-10-03T20:03:42.907Z,12.14
2022-10-03T20:06:18.912Z,12.11
2022-10-03T20:09:00.633Z,12.09
2022-10-03T20:12:03.173Z,12.13
2022-10-03T20:14:38.116Z,12.16
2022-10-03T20:17:15.648Z,12.20
2022-10-03T20:19:56.986Z,12.17
2022-10-03T20:22:27.302Z,12.18
2022-10-03T20:24:54.808Z,12.23
2022-10-03T20:27:34.759Z,12.26
2022-10-03T20:30:28.845Z,12.23
2022-10-03T20:32:58.652Z,12.22
2022-10-03T20:35:31.795Z,12.23
2022-10-03T20:38:25.610Z,12.20
2022-10-03T20:41:08.622Z,12.14
2022-10-03T20:43:56.327Z,12.11
2022-10-03T20:46:55.476Z,12.04
2022-10-03T20:49:36.351Z,12.01
2022-10-03T20:52:09.143Z,11.92
2022-10-03T20:54:36.448Z,12.02
2022-10-03T20:57:15.244Z,12.06
2022-10-03T20:59:48.152Z,12.08
2022-10-03T21:02:22.255Z,12.04
2022-10-03T21:04:58.838Z,12.00
2022-10-03T21:07:41.958Z,11.99
2022-10-03T21:10:22.089Z,11.98
2022-10-03T21:12:57.767Z,12.10
2022-10-03T21:15:31.392Z,12.10
2022-10-03T21:18:04.250Z,12.12
2022-10-03T21:20:41.080Z,12.17
2022-10-03T21:23:27.686Z,12.33
2022-10-03T21:25:58.924Z,12.33
2022-10-03T21:28:31.816Z,12.38
2022-10-03T21:31:04.950Z,12.44
2022-10-03T21:34:10.094Z,12.50
2022-10-03T21:36:55.242Z,12.57
2022-10-03T21:39:35.710Z,12.71
2022-10-03T21:42:15.207Z,12.82
2022-10-03T21:44:52.577Z,12.90
2022-10-03T21:47:47.724Z,12.94
2022-10-03T21:50:24.169Z,13.01
2022-10-03T21:53:02.757Z,13.04
2022-10-03T21:55:51.853Z,13.05
2022-10-03T21:58:56.931Z,13.08
2022-10-03T22:01:28.278Z,13.05
2022-10-03T22:04:34.218Z,13.10
2022-10-03T22:07:16.939Z,13.15
2022-10-03T22:09:47.422Z,13.13
2022-10-03T22:12:17.094Z,13.16
2022-10-03T22:14:51.993Z,13.14
2022-10-03T22:17:38.910Z,13.14
2022-10-03T22:20:20.044Z,13.13
2022-10-03T22:22:56.473Z,13.10
2022-10-03T22:25:48.481Z,13.07
2022-10-03T22:28:40.686Z,13.06
2022-10-03T22:31:19.969Z,13.07
2022-10-03T22:33:57.703Z,13.05
2022-10-03T22:36:25.217Z,13.02
2022-10-03T22:38:53.322Z,13.02
2022-10-03T22:41:26.741Z,12.98
2022-10-03T22:43:56.773Z,12.92
2022-10-03T22:46:29.561Z,12.82
2022-10-03T22:49:19.542Z,12.75
2022-10-03T22:51:49.141Z,12.73
2022-10-03T22:54:18.472Z,12.69
2022-10-03T22:56:53.716Z,12.61
2022-10-03T22:59:27.227Z,12.55
2022-10-03T23:01:56.898Z,12.52
2022-10-03T23:04:32.212Z,12.42
2022-10-03T23:07:25.828Z,12.38
2022-10-03T23:10:00.034Z,12.38
2022-10-03T23:12:32.332Z,12.41
2022-10-03T23:15:01.956Z,12.35
2022-10-03T23:17:53.648Z,12.36
2022-10-03T23:21:06.999Z,12.30
2022-10-03T23:24:12.076Z,12.23
2022-10-03T23:26:52.390Z,12.21
2022-10-03T23:29:20.871Z,12.21
2022-10-03T23:31:51.131Z,12.18
2022-10-03T23:34:41.613Z,12.13
2022-10-03T23:37:12.048Z,12.03
2022-10-03T23:40:02.041Z,12.04
2022-10-03T23:42:32.209Z,11.94
2022-10-03T23:45:15.897Z,11.81
2022-10-03T23:47:45.369Z,11.76
2022-10-03T23:50:21.791Z,11.59
2022-10-03T23:52:55.883Z,11.51
2022-10-03T23:55:29.230Z,11.53
2022-10-03T23:57:56.969Z,11.46
